Time;durP1;ratioP1;P1;durP2;ratioP2;P2;SDS_P1;SDS_P2;PMS_P1;PMS_P2;Temp;Humidity;BMP_temperature;BMP_pressure;BME280_temperature;BME280_humidity;BME280_pressure;Samples;Min_cycle;Max_cycle;Signal;HPM_P1;HPM_P2
2022/09/30 00:01:44;;;;;;;6.10;4.47;;;10.80;99.90;;;;;;5043211;28;20041;-45
2022/09/30 00:04:14;;;;;;;6.82;5.10;;;10.80;99.90;;;;;;5046405;28;20093;-43
2022/09/30 00:06:40;;;;;;;6.45;4.97;;;10.90;99.90;;;;;;5046129;28;20116;-42
2022/09/30 00:09:06;;;;;;;7.03;5.50;;;10.80;99.90;;;;;;5044670;28;20472;-43
2022/09/30 00:11:34;;;;;;;7.40;5.53;;;10.80;99.90;;;;;;5047571;28;20060;-44
2022/09/30 00:14:00;;;;;;;6.95;5.35;;;10.90;99.90;;;;;;5044583;28;20033;-43
2022/09/30 00:16:29;;;;;;;6.53;5.20;;;10.80;99.90;;;;;;5045612;28;20086;-45
2022/09/30 00:18:56;;;;;;;7.05;5.25;;;10.80;99.90;;;;;;5045328;28;20076;-46
2022/09/30 00:21:23;;;;;;;8.98;5.22;;;10.80;99.90;;;;;;5042541;28;20095;-46
2022/09/30 00:23:49;;;;;;;7.22;5.88;;;10.70;99.90;;;;;;5048503;28;20110;-46
2022/09/30 00:26:20;;;;;;;7.50;5.65;;;10.70;99.90;;;;;;5032135;28;20041;-42
2022/09/30 00:28:54;;;;;;;8.57;5.68;;;10.70;99.90;;;;;;5041075;28;20039;-42
2022/09/30 00:31:22;;;;;;;7.22;4.90;;;10.60;99.90;;;;;;5047454;28;20049;-45
2022/09/30 00:34:06;;;;;;;7.50;4.95;;;10.40;99.90;;;;;;5044358;28;20127;-44
2022/09/30 00:36:47;;;;;;;7.70;5.43;;;10.50;99.90;;;;;;5051077;28;20060;-44
2022/09/30 00:39:26;;;;;;;8.73;5.88;;;10.40;99.90;;;;;;5051190;28;20041;-44
2022/09/30 00:41:58;;;;;;;7.47;6.28;;;10.40;99.90;;;;;;5050658;28;20044;-44
2022/09/30 00:44:51;;;;;;;7.80;5.88;;;10.30;99.90;;;;;;5050586;28;20036;-45
2022/09/30 00:47:29;;;;;;;9.10;5.70;;;10.20;99.90;;;;;;5050549;28;20102;-42
2022/09/30 00:49:58;;;;;;;8.45;5.93;;;10.20;99.90;;;;;;5050492;28;20124;-42
2022/09/30 00:52:25;;;;;;;10.25;6.15;;;10.10;99.90;;;;;;5050602;28;20040;-44
2022/09/30 00:54:52;;;;;;;7.50;5.95;;;10.10;99.90;;;;;;5050814;28;20427;-45
2022/09/30 00:57:18;;;;;;;9.02;6.00;;;10.10;99.90;;;;;;5050805;28;20037;-42
2022/09/30 00:59:47;;;;;;;9.27;6.55;;;10.00;99.90;;;;;;5049001;28;20052;-48
2022/09/30 01:02:13;;;;;;;7.22;5.97;;;10.10;99.90;;;;;;5050831;28;20484;-45
2022/09/30 01:04:41;;;;;;;10.13;6.40;;;9.90;99.90;;;;;;5050345;28;20044;-43
2022/09/30 01:07:08;;;;;;;7.55;6.18;;;9.90;99.90;;;;;;5050756;28;20040;-43
2022/09/30 01:09:35;;;;;;;8.15;6.65;;;9.90;99.90;;;;;;5050595;28;20167;-46
2022/09/30 01:12:08;;;;;;;7.88;6.53;;;9.90;99.90;;;;;;5050757;28;20060;-44
2022/09/30 01:14:36;;;;;;;9.55;6.78;;;10.00;99.90;;;;;;5050936;28;20430;-41
2022/09/30 01:17:09;;;;;;;8.77;6.75;;;9.90;99.90;;;;;;5050465;28;20108;-42
2022/09/30 01:20:12;;;;;;;8.77;7.07;;;9.70;99.90;;;;;;5050237;28;20112;-45
2022/09/30 01:22:56;;;;;;;9.98;6.50;;;9.70;99.90;;;;;;5049903;28;20056;-43
2022/09/30 01:25:41;;;;;;;9.50;7.30;;;9.60;99.90;;;;;;5052822;28;20048;-44
2022/09/30 01:28:32;;;;;;;8.85;7.07;;;9.60;99.90;;;;;;5053243;28;20473;-44
2022/09/30 01:31:25;;;;;;;8.48;6.22;;;9.70;99.90;;;;;;5038618;28;20048;-45
2022/09/30 01:34:10;;;;;;;7.72;5.93;;;9.40;99.90;;;;;;5052087;28;20037;-44
2022/09/30 01:36:39;;;;;;;8.27;6.68;;;9.30;99.90;;;;;;5052439;28;20396;-45
2022/09/30 01:39:13;;;;;;;7.35;5.93;;;9.30;99.90;;;;;;5053070;28;20037;-44
2022/09/30 01:42:00;;;;;;;8.65;6.60;;;9.40;99.90;;;;;;5053021;28;20556;-42
2022/09/30 01:44:26;;;;;;;9.38;6.85;;;9.30;99.90;;;;;;5052973;28;20032;-44
2022/09/30 01:47:11;;;;;;;9.85;6.88;;;9.30;99.90;;;;;;5049877;28;20544;-44
2022/09/30 01:50:14;;;;;;;9.13;7.03;;;9.30;99.90;;;;;;5052030;28;20049;-43
2022/09/30 01:53:11;;;;;;;9.02;6.65;;;9.20;99.90;;;;;;5048292;28;20094;-45
2022/09/30 01:56:00;;;;;;;9.65;6.28;;;9.30;99.90;;;;;;5040805;28;20524;-43
2022/09/30 01:58:35;;;;;;;10.63;6.90;;;9.10;99.90;;;;;;5013382;28;20107;-43
2022/09/30 02:01:05;;;;;;;7.80;6.30;;;9.10;99.90;;;;;;5052719;28;20043;-46
2022/09/30 02:03:39;;;;;;;9.48;7.03;;;9.10;99.90;;;;;;5052842;28;20484;-45
2022/09/30 02:06:12;;;;;;;9.90;6.65;;;9.20;99.90;;;;;;5051808;28;20041;-45
2022/09/30 02:08:45;;;;;;;8.00;6.22;;;9.00;99.90;;;;;;5052495;28;20496;-47
2022/09/30 02:11:24;;;;;;;9.82;6.90;;;9.00;99.90;;;;;;5052009;28;20442;-43
2022/09/30 02:14:16;;;;;;;10.90;7.30;;;9.00;99.90;;;;;;5052465;28;20083;-41
2022/09/30 02:16:51;;;;;;;8.52;6.95;;;9.00;99.90;;;;;;5052535;28;20021;-42
2022/09/30 02:19:27;;;;;;;11.10;7.10;;;8.90;99.90;;;;;;5051704;28;20041;-40
2022/09/30 02:24:36;;;;;;;8.50;6.82;;;8.90;99.90;;;;;;5108508;27;20488;-42
2022/09/30 02:27:19;;;;;;;9.55;6.90;;;8.70;99.90;;;;;;5108760;28;20089;-43
2022/09/30 02:29:49;;;;;;;9.00;6.78;;;8.80;99.90;;;;;;5108847;28;20110;-44
2022/09/30 02:32:39;;;;;;;10.60;7.75;;;9.00;99.90;;;;;;5108488;28;20043;-45
2022/09/30 02:35:10;;;;;;;10.52;7.60;;;8.70;99.90;;;;;;5107048;28;20058;-42
2022/09/30 02:37:44;;;;;;;10.82;8.63;;;8.70;99.90;;;;;;5108550;28;20032;-42
2022/09/30 02:40:17;;;;;;;9.90;8.50;;;8.60;99.90;;;;;;5108681;28;20035;-42
2022/09/30 02:42:44;;;;;;;12.20;8.43;;;8.60;99.90;;;;;;5108232;28;20044;-42
2022/09/30 02:45:17;;;;;;;10.98;8.85;;;8.60;99.90;;;;;;5108061;28;20305;-44
2022/09/30 02:48:15;;;;;;;11.48;8.23;;;8.60;99.90;;;;;;5106701;28;20074;-41
2022/09/30 02:50:56;;;;;;;11.52;8.88;;;8.50;99.90;;;;;;5108376;28;20079;-42
2022/09/30 02:53:59;;;;;;;10.93;7.75;;;8.50;99.90;;;;;;5107646;28;20032;-43
2022/09/30 02:57:00;;;;;;;15.63;7.95;;;8.50;99.90;;;;;;5097687;28;20055;-42
2022/09/30 02:59:26;;;;;;;9.40;7.97;;;8.60;99.90;;;;;;5102619;28;20486;-44
2022/09/30 03:01:52;;;;;;;9.73;7.93;;;8.60;99.90;;;;;;5107815;28;20078;-42
2022/09/30 03:04:27;;;;;;;13.07;8.25;;;8.40;99.90;;;;;;5108049;28;20087;-43
2022/09/30 03:06:54;;;;;;;10.60;8.23;;;8.40;99.90;;;;;;5107892;28;20086;-44
2022/09/30 03:09:25;;;;;;;10.68;8.30;;;8.40;99.90;;;;;;5107767;28;20082;-41
2022/09/30 03:12:07;;;;;;;10.55;8.85;;;8.30;99.90;;;;;;5106858;28;20028;-42
2022/09/30 03:15:03;;;;;;;12.18;8.35;;;8.30;99.90;;;;;;5108042;28;20047;-42
2022/09/30 03:17:53;;;;;;;11.10;8.13;;;8.30;99.90;;;;;;5107512;28;20044;-41
2022/09/30 03:20:51;;;;;;;9.98;8.27;;;8.30;99.90;;;;;;5107412;28;20082;-43
2022/09/30 03:23:34;;;;;;;9.48;7.72;;;8.30;99.90;;;;;;5107291;28;20185;-41
2022/09/30 03:26:35;;;;;;;8.73;7.20;;;8.30;99.90;;;;;;5107664;28;20040;-45
2022/09/30 03:29:23;;;;;;;9.43;7.28;;;8.20;99.90;;;;;;5087773;28;20146;-42
2022/09/30 03:31:56;;;;;;;8.75;7.00;;;8.20;99.90;;;;;;5107499;28;20047;-44
2022/09/30 03:34:36;;;;;;;9.88;7.50;;;8.20;99.90;;;;;;5102933;28;20040;-45
2022/09/30 03:37:27;;;;;;;9.45;7.28;;;8.00;99.90;;;;;;5091502;28;20036;-43
2022/09/30 03:40:01;;;;;;;10.43;6.97;;;8.00;99.90;;;;;;5092380;28;20040;-44
2022/09/30 03:42:43;;;;;;;8.38;6.80;;;8.00;99.90;;;;;;5092819;28;20106;-42
2022/09/30 03:45:19;;;;;;;9.07;7.35;;;8.00;99.90;;;;;;5093476;28;20054;-42
2022/09/30 03:47:49;;;;;;;8.80;7.05;;;8.10;99.90;;;;;;5090937;28;20161;-44
2022/09/30 03:50:20;;;;;;;11.07;7.53;;;7.90;99.90;;;;;;5093466;28;20107;-42
2022/09/30 03:52:48;;;;;;;9.30;7.95;;;7.90;99.90;;;;;;5093329;28;20044;-43
2022/09/30 03:55:14;;;;;;;11.00;8.10;;;8.00;99.90;;;;;;5093514;28;20050;-46
2022/09/30 03:57:41;;;;;;;9.82;7.65;;;8.10;99.90;;;;;;5093158;28;20088;-43
2022/09/30 04:00:07;;;;;;;9.80;7.55;;;8.00;99.90;;;;;;5093249;28;20043;-43
2022/09/30 04:02:35;;;;;;;9.80;7.00;;;7.80;99.90;;;;;;5093367;28;20051;-44
2022/09/30 04:05:01;;;;;;;10.32;7.45;;;8.00;99.90;;;;;;5092986;28;20044;-44
2022/09/30 04:07:26;;;;;;;8.55;6.90;;;7.80;99.90;;;;;;5093319;28;20044;-45
2022/09/30 04:09:52;;;;;;;10.40;7.22;;;7.80;99.90;;;;;;5093246;28;20083;-44
2022/09/30 04:12:18;;;;;;;8.55;6.90;;;8.10;99.90;;;;;;5093265;28;20058;-45
2022/09/30 04:14:43;;;;;;;9.68;6.55;;;7.80;99.90;;;;;;5093391;28;20185;-45
2022/09/30 04:17:09;;;;;;;10.60;6.93;;;7.80;99.90;;;;;;5093142;28;20043;-47
2022/09/30 04:19:38;;;;;;;11.20;7.18;;;7.80;99.90;;;;;;5092491;28;20119;-42
2022/09/30 04:22:05;;;;;;;8.57;6.40;;;7.70;99.90;;;;;;5093155;28;20036;-45
2022/09/30 04:24:31;;;;;;;9.60;7.15;;;7.70;99.90;;;;;;5092550;28;20048;-44
2022/09/30 04:26:56;;;;;;;10.02;7.43;;;7.70;99.90;;;;;;5092488;28;20043;-42
2022/09/30 04:29:22;;;;;;;8.65;6.43;;;7.60;99.90;;;;;;5092968;28;20119;-46
2022/09/30 04:31:48;;;;;;;9.82;7.68;;;7.70;99.90;;;;;;5092763;28;20075;-44
2022/09/30 04:34:14;;;;;;;9.07;6.80;;;7.70;99.90;;;;;;5074540;28;20566;-44
2022/09/30 04:36:39;;;;;;;9.93;6.97;;;7.60;99.90;;;;;;5092528;28;20066;-45
2022/09/30 04:39:05;;;;;;;8.27;6.60;;;7.60;99.90;;;;;;5092620;28;20040;-43
2022/09/30 04:41:32;;;;;;;8.88;6.90;;;7.50;99.90;;;;;;5092705;28;20505;-41
2022/09/30 04:43:59;;;;;;;8.57;6.32;;;7.60;99.90;;;;;;5091007;28;20491;-44
2022/09/30 04:46:25;;;;;;;10.30;6.78;;;7.30;99.90;;;;;;5091602;28;20048;-42
2022/09/30 04:48:51;;;;;;;9.27;6.70;;;7.60;99.90;;;;;;5092174;28;20100;-45
2022/09/30 04:51:19;;;;;;;9.82;7.00;;;7.60;99.90;;;;;;5092100;28;20120;-42
2022/09/30 04:53:45;;;;;;;12.60;7.72;;;7.50;99.90;;;;;;5092460;28;20429;-44
2022/09/30 04:56:12;;;;;;;9.32;7.57;;;7.60;99.90;;;;;;5092339;28;20479;-44
2022/09/30 04:58:38;;;;;;;10.88;7.38;;;7.40;99.90;;;;;;5092030;28;20047;-49
2022/09/30 05:01:15;;;;;;;10.40;7.30;;;7.50;99.90;;;;;;5092481;28;20036;-45
2022/09/30 05:03:42;;;;;;;10.98;7.68;;;7.40;99.90;;;;;;5091618;28;20072;-44
2022/09/30 05:06:08;;;;;;;9.68;7.13;;;7.30;99.90;;;;;;5090493;28;20040;-42
2022/09/30 05:08:35;;;;;;;9.38;7.60;;;7.30;99.90;;;;;;5092260;28;20036;-42
2022/09/30 05:11:03;;;;;;;8.60;7.10;;;7.30;99.90;;;;;;5091871;28;20035;-41
2022/09/30 05:13:32;;;;;;;8.95;7.30;;;7.30;99.90;;;;;;5091920;28;20032;-45
2022/09/30 05:15:57;;;;;;;9.25;7.03;;;7.30;99.90;;;;;;5091999;28;20144;-43
2022/09/30 05:18:25;;;;;;;9.93;7.32;;;7.20;99.90;;;;;;5091142;28;20564;-44
2022/09/30 05:20:56;;;;;;;8.60;7.10;;;7.20;99.90;;;;;;5091956;28;20044;-43
2022/09/30 05:23:23;;;;;;;9.82;6.60;;;7.30;99.90;;;;;;5091356;28;20059;-44
2022/09/30 05:25:49;;;;;;;8.63;6.38;;;7.30;99.90;;;;;;5091435;28;20082;-42
2022/09/30 05:28:15;;;;;;;7.75;6.00;;;7.20;99.90;;;;;;5091529;28;20064;-44
2022/09/30 05:30:42;;;;;;;10.05;6.60;;;7.10;99.90;;;;;;5091264;28;20040;-48
2022/09/30 05:33:09;;;;;;;11.07;6.72;;;7.20;99.90;;;;;;5091708;28;20084;-43
2022/09/30 05:35:34;;;;;;;9.32;6.75;;;7.10;99.90;;;;;;5091623;28;20044;-46
2022/09/30 05:38:03;;;;;;;8.50;6.32;;;7.10;99.90;;;;;;5090215;28;20394;-43
2022/09/30 05:40:29;;;;;;;9.35;6.72;;;7.00;99.90;;;;;;5091214;28;20047;-44
2022/09/30 05:42:59;;;;;;;9.73;6.63;;;7.10;99.90;;;;;;5090309;28;20506;-42
2022/09/30 05:45:25;;;;;;;8.93;6.43;;;7.00;99.90;;;;;;5091370;28;20633;-42
2022/09/30 05:47:54;;;;;;;9.95;7.47;;;7.00;99.90;;;;;;5091040;28;20070;-44
2022/09/30 05:50:21;;;;;;;8.73;6.50;;;7.00;99.90;;;;;;5091818;28;20032;-41
2022/09/30 05:52:48;;;;;;;9.57;6.65;;;6.90;99.90;;;;;;5089743;28;20046;-42
2022/09/30 05:55:15;;;;;;;9.35;6.78;;;7.20;99.90;;;;;;5091305;28;20036;-42
2022/09/30 05:57:42;;;;;;;11.32;6.65;;;7.10;99.90;;;;;;5089335;28;20036;-42
2022/09/30 06:00:09;;;;;;;10.25;7.10;;;6.90;99.90;;;;;;5091037;28;20047;-44
2022/09/30 06:02:37;;;;;;;12.65;7.45;;;7.00;99.90;;;;;;5091066;28;20044;-44
2022/09/30 06:05:06;;;;;;;9.27;6.70;;;7.00;99.90;;;;;;5091594;28;20059;-44
2022/09/30 06:07:33;;;;;;;9.75;7.70;;;7.00;99.90;;;;;;5090728;28;20032;-44
2022/09/30 06:09:59;;;;;;;10.20;6.82;;;7.00;99.90;;;;;;5091107;28;20032;-42
2022/09/30 06:12:27;;;;;;;11.45;7.10;;;7.00;99.90;;;;;;5090917;28;20513;-43
2022/09/30 06:14:56;;;;;;;9.25;7.60;;;7.10;99.90;;;;;;5091028;28;20167;-45
2022/09/30 06:17:22;;;;;;;15.23;7.10;;;7.00;99.90;;;;;;5089773;28;20402;-43
2022/09/30 06:19:48;;;;;;;9.77;7.43;;;7.00;99.90;;;;;;5090656;28;20032;-44
2022/09/30 06:22:16;;;;;;;10.57;6.60;;;7.00;99.90;;;;;;5090934;28;20038;-42
2022/09/30 06:24:42;;;;;;;8.35;7.05;;;7.00;99.90;;;;;;5090977;28;20048;-43
2022/09/30 06:27:07;;;;;;;10.23;7.22;;;7.20;99.90;;;;;;5090990;28;20797;-42
2022/09/30 06:29:33;;;;;;;11.55;7.20;;;7.10;99.90;;;;;;5090602;28;20028;-46
2022/09/30 06:31:58;;;;;;;10.75;7.97;;;7.10;99.90;;;;;;5090551;28;20044;-44
2022/09/30 06:34:24;;;;;;;12.07;7.95;;;7.10;99.90;;;;;;5089565;28;20081;-45
2022/09/30 06:36:50;;;;;;;11.52;7.90;;;7.10;99.90;;;;;;5090848;28;20156;-43
2022/09/30 06:39:15;;;;;;;10.88;7.32;;;7.10;99.90;;;;;;5090965;28;20055;-47
2022/09/30 06:41:42;;;;;;;11.38;7.60;;;7.10;99.90;;;;;;5089534;28;20032;-42
2022/09/30 06:44:09;;;;;;;11.95;7.38;;;7.20;99.90;;;;;;5089348;28;20051;-41
2022/09/30 06:46:35;;;;;;;10.18;7.60;;;7.30;99.90;;;;;;5090427;28;20037;-44
2022/09/30 06:49:01;;;;;;;9.95;7.88;;;7.30;99.90;;;;;;5090467;28;20088;-43
2022/09/30 06:51:31;;;;;;;13.63;7.82;;;7.40;99.90;;;;;;5089564;28;20107;-42
2022/09/30 06:53:58;;;;;;;15.32;8.25;;;7.30;99.90;;;;;;5089370;28;20050;-43
2022/09/30 06:56:23;;;;;;;11.27;7.47;;;7.40;99.90;;;;;;5090753;28;20387;-42
2022/09/30 06:58:49;;;;;;;13.45;7.97;;;7.40;99.90;;;;;;5090643;28;20036;-41
2022/09/30 07:01:15;;;;;;;17.38;8.20;;;7.40;99.90;;;;;;5090840;28;20044;-45
2022/09/30 07:03:43;;;;;;;11.60;7.53;;;7.50;99.90;;;;;;5090587;28;20039;-42
2022/09/30 07:06:11;;;;;;;10.82;7.72;;;7.50;99.90;;;;;;5090447;28;20425;-44
2022/09/30 07:08:37;;;;;;;10.40;7.65;;;7.70;99.90;;;;;;5090232;28;20036;-43
2022/09/30 07:11:13;;;;;;;10.70;7.57;;;7.70;99.90;;;;;;5093710;28;20514;-45
2022/09/30 07:13:42;;;;;;;12.75;7.95;;;7.80;99.90;;;;;;5094360;28;20451;-45
2022/09/30 07:16:10;;;;;;;10.27;7.88;;;7.90;99.90;;;;;;5094358;28;20475;-42
2022/09/30 07:18:37;;;;;;;12.32;8.07;;;7.80;99.90;;;;;;5094006;28;20032;-44
2022/09/30 07:21:02;;;;;;;10.98;8.40;;;8.00;99.90;;;;;;5094071;28;20040;-42
2022/09/30 07:23:29;;;;;;;12.45;8.23;;;8.10;99.90;;;;;;5092447;28;20646;-44
2022/09/30 07:26:01;;;;;;;11.68;8.38;;;8.10;99.90;;;;;;5091246;28;20058;-41
2022/09/30 07:28:30;;;;;;;10.88;8.48;;;8.20;99.90;;;;;;5091961;28;20617;-41
2022/09/30 07:30:58;;;;;;;12.50;9.05;;;7.60;99.90;;;;;;5088211;28;20079;-40
2022/09/30 07:33:27;;;;;;;13.18;8.80;;;8.30;99.90;;;;;;5092418;28;20073;-45
2022/09/30 07:35:55;;;;;;;14.57;9.00;;;8.40;99.90;;;;;;5092517;28;20035;-44
2022/09/30 07:38:23;;;;;;;12.43;8.93;;;8.50;99.90;;;;;;5093584;28;20048;-42
2022/09/30 07:40:58;;;;;;;15.00;8.88;;;8.40;99.90;;;;;;5085012;28;20036;-44
2022/09/30 07:43:37;;;;;;;12.50;9.52;;;8.60;99.90;;;;;;5083610;28;20078;-43
2022/09/30 07:46:13;;;;;;;14.15;9.77;;;8.80;99.90;;;;;;5084205;28;20074;-43
2022/09/30 07:48:47;;;;;;;15.50;9.98;;;8.80;99.90;;;;;;5083692;28;20036;-44
2022/09/30 07:51:31;;;;;;;14.02;10.75;;;8.80;99.90;;;;;;5083852;28;20539;-43
2022/09/30 07:54:06;;;;;;;12.73;9.60;;;8.90;99.90;;;;;;5084339;28;20047;-43
2022/09/30 07:56:32;;;;;;;13.02;10.38;;;9.00;99.90;;;;;;5083860;28;20039;-41
2022/09/30 07:59:00;;;;;;;12.85;10.20;;;9.20;99.90;;;;;;5084397;28;20032;-44
2022/09/30 08:01:27;;;;;;;14.35;9.88;;;9.30;99.90;;;;;;5083421;28;20502;-44
2022/09/30 08:03:55;;;;;;;14.75;10.00;;;9.20;99.90;;;;;;5083177;28;20502;-45
2022/09/30 08:06:22;;;;;;;18.42;10.95;;;9.40;99.90;;;;;;5082805;28;20499;-44
2022/09/30 08:08:51;;;;;;;17.17;10.90;;;9.50;99.90;;;;;;5083588;28;20066;-42
2022/09/30 08:11:18;;;;;;;14.35;10.65;;;9.60;99.90;;;;;;5084390;28;20044;-43
2022/09/30 08:13:44;;;;;;;15.90;10.20;;;9.70;99.90;;;;;;5082906;28;20051;-44
2022/09/30 08:16:09;;;;;;;14.02;10.80;;;9.70;99.90;;;;;;5083720;28;20046;-43
2022/09/30 08:18:35;;;;;;;14.10;10.60;;;10.00;99.90;;;;;;5082337;28;22805;-43
2022/09/30 08:21:03;;;;;;;11.88;9.32;;;9.90;99.90;;;;;;5081505;28;20041;-44
2022/09/30 08:23:29;;;;;;;13.93;10.25;;;10.10;99.90;;;;;;5082424;28;20051;-44
2022/09/30 08:26:10;;;;;;;13.93;10.13;;;10.30;99.90;;;;;;5083446;28;20033;-44
2022/09/30 08:28:37;;;;;;;15.27;10.52;;;10.40;99.90;;;;;;5082134;28;20035;-43
2022/09/30 08:31:06;;;;;;;16.65;10.70;;;10.50;99.90;;;;;;5082344;28;20036;-42
2022/09/30 08:33:31;;;;;;;14.57;10.80;;;10.70;99.90;;;;;;5081310;28;20052;-43
2022/09/30 08:36:05;;;;;;;13.98;10.45;;;10.70;99.90;;;;;;5082767;28;20036;-44
2022/09/30 08:38:31;;;;;;;14.35;10.25;;;10.90;99.90;;;;;;5079814;28;20044;-44
2022/09/30 08:41:11;;;;;;;17.27;11.45;;;10.90;99.90;;;;;;5080264;28;20516;-43
2022/09/30 08:44:02;;;;;;;16.98;11.07;;;11.10;99.90;;;;;;5079853;28;20131;-42
2022/09/30 08:47:08;;;;;;;13.52;10.38;;;11.20;99.90;;;;;;5061137;28;20056;-42
2022/09/30 08:50:11;;;;;;;15.35;10.93;;;11.50;99.90;;;;;;5081798;28;20024;-44
2022/09/30 08:52:40;;;;;;;13.55;10.48;;;11.50;99.90;;;;;;5080057;28;20059;-43
2022/09/30 08:55:15;;;;;;;16.13;11.10;;;11.60;99.90;;;;;;5082852;28;20134;-44
2022/09/30 08:57:43;;;;;;;13.13;11.35;;;11.90;99.90;;;;;;5082402;28;20028;-44
2022/09/30 09:00:16;;;;;;;15.40;11.57;;;12.10;99.90;;;;;;5078190;28;20054;-41
2022/09/30 09:02:48;;;;;;;16.35;11.10;;;12.20;99.90;;;;;;5081159;28;20055;-43
2022/09/30 09:05:46;;;;;;;12.63;10.93;;;12.40;99.90;;;;;;5076729;28;20219;-43
2022/09/30 09:08:15;;;;;;;16.23;11.52;;;12.50;99.90;;;;;;5080609;28;20028;-42
2022/09/30 09:10:45;;;;;;;14.23;12.18;;;12.60;99.90;;;;;;5081800;28;20036;-42
2022/09/30 09:13:17;;;;;;;13.70;11.57;;;12.80;99.90;;;;;;5081157;28;20119;-45
2022/09/30 09:16:01;;;;;;;13.23;10.65;;;12.90;99.90;;;;;;5079549;28;20407;-42
2022/09/30 09:18:52;;;;;;;;;;;13.00;99.90;;;;;;5081166;28;20036;-43
2022/09/30 09:21:36;;;;;;;12.68;10.25;;;13.20;99.90;;;;;;5081715;28;19928;-45
2022/09/30 09:24:04;;;;;;;14.48;10.23;;;13.50;99.90;;;;;;5079738;28;20070;-43
2022/09/30 09:26:35;;;;;;;11.13;9.77;;;13.60;99.90;;;;;;5078071;28;20618;-44
2022/09/30 09:29:19;;;;;;;11.93;9.40;;;13.70;99.90;;;;;;5082012;28;20131;-45
2022/09/30 09:31:47;;;;;;;11.68;8.82;;;13.70;99.90;;;;;;5087651;28;20043;-44
2022/09/30 09:34:13;;;;;;;12.65;8.77;;;13.80;99.90;;;;;;5087919;28;20123;-44
2022/09/30 09:37:00;;;;;;;11.02;8.55;;;14.00;99.90;;;;;;5089385;28;20036;-45
2022/09/30 09:40:03;;;;;;;11.52;7.93;;;14.10;99.90;;;;;;5091216;28;20471;-44
2022/09/30 09:43:06;;;;;;;9.43;7.30;;;14.20;99.90;;;;;;5089727;28;20061;-45
2022/09/30 09:45:43;;;;;;;7.93;6.10;;;14.30;99.90;;;;;;5091129;28;20038;-44
2022/09/30 09:48:12;;;;;;;8.68;7.20;;;14.40;99.90;;;;;;5091336;28;20028;-42
2022/09/30 09:51:00;;;;;;;10.50;6.68;;;14.40;99.90;;;;;;5090069;28;20062;-43
2022/09/30 09:53:47;;;;;;;9.15;6.93;;;14.50;99.90;;;;;;5078963;28;20459;-44
2022/09/30 09:56:18;;;;;;;7.28;6.05;;;14.60;99.90;;;;;;5079568;28;20044;-42
2022/09/30 09:59:14;;;;;;;8.52;5.90;;;14.70;99.90;;;;;;5086644;28;20088;-44
2022/09/30 10:01:43;;;;;;;7.20;5.43;;;14.80;99.90;;;;;;5083291;28;20118;-45
2022/09/30 10:04:13;;;;;;;8.73;5.95;;;14.80;99.90;;;;;;5090848;28;20074;-46
2022/09/30 10:07:00;;;;;;;6.93;5.75;;;14.80;99.90;;;;;;5088797;28;20446;-44
2022/09/30 10:09:30;;;;;;;7.93;5.82;;;14.90;99.90;;;;;;5089069;28;20047;-46
2022/09/30 10:12:05;;;;;;;9.32;6.65;;;15.00;99.90;;;;;;5087347;28;20678;-45
2022/09/30 10:14:35;;;;;;;8.50;6.15;;;15.00;99.90;;;;;;5090694;28;20043;-42
2022/09/30 10:17:03;;;;;;;8.20;5.55;;;15.10;99.90;;;;;;5090852;28;20036;-42
2022/09/30 10:19:31;;;;;;;9.30;6.55;;;15.10;99.90;;;;;;5090643;28;20046;-44
2022/09/30 10:22:10;;;;;;;7.97;5.78;;;15.30;99.90;;;;;;5090458;28;20040;-46
2022/09/30 10:24:38;;;;;;;7.38;5.30;;;15.40;99.90;;;;;;5089842;28;20054;-42
2022/09/30 10:27:24;;;;;;;6.70;5.18;;;15.50;99.90;;;;;;5088046;28;20101;-45
2022/09/30 10:29:49;;;;;;;6.10;4.50;;;15.60;99.90;;;;;;5090142;28;20094;-46
2022/09/30 10:32:15;;;;;;;5.50;4.00;;;15.70;99.90;;;;;;5090472;28;20036;-45
2022/09/30 10:34:43;;;;;;;6.97;3.70;;;15.80;99.90;;;;;;5090727;28;20126;-44
2022/09/30 10:37:19;;;;;;;5.72;4.15;;;16.00;99.90;;;;;;5090361;28;20048;-44
2022/09/30 10:39:56;;;;;;;5.78;3.83;;;16.10;99.90;;;;;;5088448;28;20036;-42
2022/09/30 10:42:26;;;;;;;5.82;3.17;;;16.20;99.90;;;;;;5090726;28;20054;-42
2022/09/30 10:45:20;;;;;;;4.40;2.78;;;16.30;99.90;;;;;;5091728;28;20032;-46
2022/09/30 10:47:49;;;;;;;5.85;3.13;;;16.40;99.90;;;;;;5088446;28;20443;-45
2022/09/30 10:50:20;;;;;;;4.70;2.72;;;16.50;99.90;;;;;;5094333;28;20360;-44
2022/09/30 10:53:03;;;;;;;5.10;2.40;;;16.60;99.90;;;;;;5094467;28;20043;-43
2022/09/30 10:55:34;;;;;;;3.63;2.10;;;16.60;99.90;;;;;;5094622;28;20418;-44
2022/09/30 10:58:38;;;;;;;5.03;2.78;;;16.70;99.90;;;;;;5093907;28;20384;-43
2022/09/30 11:01:12;;;;;;;4.13;2.67;;;16.70;99.90;;;;;;5091674;28;20040;-44
2022/09/30 11:04:02;;;;;;;4.47;2.63;;;16.70;99.90;;;;;;5093480;28;20134;-44
2022/09/30 11:06:32;;;;;;;5.53;2.97;;;16.50;99.90;;;;;;5080152;28;20048;-44
2022/09/30 11:09:20;;;;;;;3.90;1.80;;;16.40;99.90;;;;;;5089008;28;20044;-44
2022/09/30 11:11:55;;;;;;;2.53;1.33;;;16.40;99.90;;;;;;5090661;28;20062;-44
2022/09/30 11:14:38;;;;;;;3.63;1.52;;;16.50;99.90;;;;;;5091296;28;20104;-45
2022/09/30 11:17:22;;;;;;;3.30;1.55;;;16.60;99.90;;;;;;5091447;28;20036;-45
2022/09/30 11:19:54;;;;;;;3.92;1.85;;;16.70;99.90;;;;;;5089567;28;20111;-43
2022/09/30 11:22:28;;;;;;;4.65;1.98;;;16.80;99.90;;;;;;5091063;28;20035;-46
2022/09/30 11:24:56;;;;;;;6.22;4.47;;;16.70;99.90;;;;;;5091436;28;20098;-45
2022/09/30 11:27:56;;;;;;;9.32;7.10;;;17.00;99.90;;;;;;5088536;28;20040;-45
2022/09/30 11:30:21;;;;;;;9.57;7.85;;;17.00;99.90;;;;;;5088560;28;20035;-43
2022/09/30 11:33:06;;;;;;;9.90;8.15;;;17.20;99.90;;;;;;5086241;28;20479;-45
2022/09/30 11:35:34;;;;;;;;;;;17.30;99.90;;;;;;5089873;28;20046;-47
2022/09/30 11:38:18;;;;;;;5.20;2.10;;;17.20;99.90;;;;;;5090420;28;20354;-44
2022/09/30 11:40:44;;;;;;;;;;;17.60;99.90;;;;;;5090566;28;20146;-45
2022/09/30 11:43:18;;;;;;;3.40;1.42;;;18.00;99.90;;;;;;5090906;28;20015;-43
2022/09/30 11:45:57;;;;;;;4.07;1.58;;;18.30;99.90;;;;;;5087562;28;20491;-47
2022/09/30 11:48:50;;;;;;;2.40;1.17;;;18.60;99.90;;;;;;5089640;28;20043;-47
2022/09/30 11:51:35;;;;;;;3.22;1.70;;;18.60;99.90;;;;;;5089188;28;20032;-45
2022/09/30 11:54:03;;;;;;;3.50;1.90;;;18.60;99.90;;;;;;5088356;28;20165;-47
2022/09/30 11:56:51;;;;;;;3.63;1.98;;;18.30;99.90;;;;;;5088658;28;20471;-45
2022/09/30 11:59:29;;;;;;;5.40;1.83;;;18.00;99.90;;;;;;5088737;28;20090;-47
2022/09/30 12:02:00;;;;;;;4.03;2.20;;;17.70;99.90;;;;;;5087286;28;20047;-47
2022/09/30 12:04:40;;;;;;;4.07;1.70;;;18.00;99.90;;;;;;5089681;28;20486;-43
2022/09/30 12:07:31;;;;;;;3.83;1.65;;;18.40;99.90;;;;;;5090904;28;20388;-45
2022/09/30 12:10:02;;;;;;;4.20;1.63;;;18.60;99.90;;;;;;5067726;28;20143;-48
2022/09/30 12:12:28;;;;;;;3.72;1.95;;;18.90;99.90;;;;;;5092813;28;20082;-46
2022/09/30 12:15:06;;;;;;;2.88;1.45;;;19.20;99.90;;;;;;5090716;28;20138;-43
2022/09/30 12:17:47;;;;;;;3.40;1.88;;;19.40;99.90;;;;;;5092037;28;20464;-44
2022/09/30 12:20:15;;;;;;;3.75;2.00;;;19.50;99.90;;;;;;5092484;28;20159;-44
2022/09/30 12:22:44;;;;;;;3.63;2.20;;;19.60;99.90;;;;;;5092149;28;20059;-43
2022/09/30 12:25:18;;;;;;;5.25;1.85;;;19.50;99.90;;;;;;5092874;28;20036;-43
2022/09/30 12:27:59;;;;;;;3.08;1.98;;;19.50;99.90;;;;;;5092779;28;20391;-44
2022/09/30 12:30:28;;;;;;;2.92;1.83;;;19.10;99.90;;;;;;5092992;28;20048;-43
2022/09/30 12:33:00;;;;;;;3.10;1.67;;;19.00;99.90;;;;;;5092787;28;20542;-43
2022/09/30 12:35:55;;;;;;;5.57;1.92;;;19.30;99.90;;;;;;5093056;28;20048;-46
2022/09/30 12:38:52;;;;;;;4.20;2.08;;;19.70;99.90;;;;;;5092919;28;20067;-44
2022/09/30 12:41:29;;;;;;;3.58;2.17;;;19.70;99.30;;;;;;5092585;28;20036;-43
2022/09/30 12:44:14;;;;;;;4.13;2.08;;;19.90;99.90;;;;;;5090954;28;20043;-46
2022/09/30 12:46:48;;;;;;;5.07;2.10;;;19.90;99.90;;;;;;5092681;28;20035;-43
2022/09/30 12:49:18;;;;;;;4.75;2.17;;;20.00;99.70;;;;;;5092309;28;20079;-44
2022/09/30 12:51:49;;;;;;;4.25;2.30;;;20.10;98.50;;;;;;5092372;28;20035;-43
2022/09/30 12:54:24;;;;;;;4.75;2.22;;;20.20;99.70;;;;;;5092556;28;20039;-45
2022/09/30 12:56:55;;;;;;;3.67;2.25;;;20.20;99.00;;;;;;5092343;28;20115;-45
2022/09/30 12:59:30;;;;;;;5.28;3.20;;;20.20;97.90;;;;;;5092414;28;20035;-44
2022/09/30 13:01:57;;;;;;;4.32;2.50;;;20.30;98.60;;;;;;5092413;28;20040;-43
2022/09/30 13:04:36;;;;;;;4.55;2.72;;;20.10;98.90;;;;;;5092148;28;20474;-45
2022/09/30 13:07:02;;;;;;;5.60;2.97;;;20.00;98.40;;;;;;5089353;28;20041;-47
2022/09/30 13:09:35;;;;;;;5.80;3.40;;;19.90;99.50;;;;;;5090815;28;20401;-46
2022/09/30 13:12:01;;;;;;;7.30;3.40;;;20.00;99.40;;;;;;5092499;28;20036;-44
2022/09/30 13:14:44;;;;;;;6.07;3.90;;;19.80;99.00;;;;;;5092214;28;20791;-46
2022/09/30 13:17:10;;;;;;;7.15;3.55;;;19.80;98.50;;;;;;5092270;28;20204;-50
2022/09/30 13:19:50;;;;;;;5.30;3.58;;;20.20;99.50;;;;;;5091695;28;20075;-44
2022/09/30 13:22:28;;;;;;;6.00;3.40;;;20.40;97.50;;;;;;5091727;28;20039;-43
2022/09/30 13:24:56;;;;;;;4.63;3.63;;;20.20;97.90;;;;;;5091465;28;20148;-47